Nearby METAR Reports

 

LIBV - Gioia Del Colle, Italy
Distance from station: SSE 15km
Actualizado: 18/10/2018 18:55
Parcialmente nublado
Parcialmente nublado
 Vento de NNE
Vento: NNE 9 km/h
Temperatura: 18°C
Ponto de Orvalho: 16°C
Humidade: 88%
Barómetro: 1015 hPa
Clouds: Parcialmente nublado
Visibility: 10 km
Cloud details: Parcialmente nublado 762 m
2018/10/18 16:55 LIBV 181655Z 02005KT 9999 SCT025 18/16 Q1015 RMK SCT VIS MIN 9999 WIND THR32 04005KT WIND THR14 02004KT BLU
LIBD - Bari/Palese Macc, Italy
Distance from station: NNW 26km
Actualizado: 18/10/2018 19:20
Few Clouds
Few Clouds
 Vento de calm
Vento: Calmo
Temperatura: 17°C
Ponto de Orvalho: 15°C
Humidade: 88%
Barómetro: 1015 hPa
Clouds: Few Clouds
Visibility: 10 km
Cloud details: Few Clouds 457 m
2018/10/18 17:20 LIBD 181720Z 00000KT 9999 FEW015 17/15 Q1015
LIBH - Marina Di Ginosa, Italy
Distance from station: S 53km
Actualizado: 18/10/2018 18:55
Céu Limpo
Céu Limpo
 Vento de calm
Vento: Calmo
Temperatura: 19°C
Ponto de Orvalho: 17°C
Humidade: 88%
Barómetro: 1013 hPa
Resumo: Céu Limpo
Visibility: greater than 10 km
2018/10/18 16:55 LIBH 181655Z 00000KT CAVOK 19/17 Q1013 RMK SKC QUK / QUL / VIS MAR 20 KM VIS MIN 9999
 
LIBG - Grottaglie(Civ/A, Italy
Distance from station: SE 61km
Actualizado: 18/10/2018 18:50
Parcialmente nublado
Parcialmente nublado
 Vento de ENE
Vento: ENE 7 km/h
Temperatura: 21°C
Ponto de Orvalho: 18°C
Humidade: 83%
Barómetro: 1014 hPa
Clouds: Parcialmente nublado
Visibility: 10 km
Cloud details: Parcialmente nublado 914 m
2018/10/18 16:50 LIBG 181650Z 06004KT 020V080 9999 SCT030 21/18 Q1014
LIBR - Brindisi/Casale, Italy
Distance from station: ESE 96km
Actualizado: 18/10/2018 19:20
Céu Limpo
Céu Limpo
 Vento de NNW
Vento: NNW 4 km/h
Temperatura: 20°C
Ponto de Orvalho: 17°C
Humidade: 83%
Barómetro: 1014 hPa
Resumo: Céu Limpo
Visibility: greater than 10 km
2018/10/18 17:20 LIBR 181720Z 34002KT CAVOK 20/17 Q1014
LIBA - Amendola (it-Afb, Italy
Distance from station: NW 118km
Actualizado: 18/10/2018 18:55
Céu Limpo
Céu Limpo
 Vento de SSE
Vento: SSE 7 km/h
Temperatura: 19°C
Ponto de Orvalho: 17°C
Humidade: 88%
Barómetro: 1014 hPa
Resumo: Céu Limpo
Visibility: greater than 10 km
2018/10/18 16:55 LIBA 181655Z 15004KT CAVOK 19/17 Q1014 RMK SKC VIS MIN 9999 WIND THR11 15004KT WIND THR29 /////KT BLU
 
LIBF - Foggia/Gino Lisa, Italy
Distance from station: WNW 126km
Actualizado: 18/10/2018 17:50
NOT Current
Few Clouds
Few Clouds
 Vento de E
Vento: E 7 km/h
Temperatura: 21°C
Ponto de Orvalho: 14°C
Humidade: 64%
Barómetro: 1014 hPa
Clouds: Few Clouds
Visibility: 10 km
Cloud details: Few Clouds 1372 m
2018/10/18 15:50 LIBF 181550Z 09004KT 050V110 9999 FEW045 21/14 Q1014
LIBN - Lecce (it-Afb), Italy
Distance from station: SE 132km
Actualizado: 18/10/2018 18:55
Céu Limpo
Céu Limpo
 Vento de N
Vento: N 7 km/h
Temperatura: 19°C
Ponto de Orvalho: 18°C
Humidade: 94%
Barómetro: 1014 hPa
Resumo: Céu Limpo
Visibility: greater than 10 km
2018/10/18 16:55 LIBN 181655Z 01004KT CAVOK 19/18 Q1014 RMK FEW FEW100 VIS MIN 9999 WIND THR14 01003KT WIND THR32 02003KT BLU